createdAt,value
2022-11-15T00:00:44.800Z,15.32
2022-11-15T00:03:13.890Z,15.80
2022-11-15T00:05:41.958Z,15.48
2022-11-15T00:08:08.922Z,14.90
2022-11-15T00:10:35.946Z,15.75
2022-11-15T00:13:06.193Z,14.88
2022-11-15T00:15:32.969Z,14.98
2022-11-15T00:17:59.656Z,13.93
2022-11-15T00:20:26.303Z,14.75
2022-11-15T00:22:54.637Z,14.23
2022-11-15T00:25:21.319Z,14.40
2022-11-15T00:27:48.256Z,14.55
2022-11-15T00:30:14.894Z,14.88
2022-11-15T00:32:41.571Z,14.90
2022-11-15T00:35:08.697Z,15.13
2022-11-15T00:37:35.447Z,14.65
2022-11-15T00:40:03.918Z,15.35
2022-11-15T00:42:30.557Z,15.80
2022-11-15T00:44:57.166Z,15.23
2022-11-15T00:47:23.802Z,15.20
2022-11-15T00:49:50.394Z,15.63
2022-11-15T00:52:17.029Z,15.05
2022-11-15T00:54:43.660Z,15.32
2022-11-15T00:57:11.619Z,15.48
2022-11-15T00:59:38.209Z,14.90
2022-11-15T01:02:04.884Z,15.57
2022-11-15T01:04:31.628Z,15.45
2022-11-15T01:06:58.365Z,14.93
2022-11-15T01:09:25.005Z,14.50
2022-11-15T01:11:51.589Z,14.57
2022-11-15T01:14:25.110Z,14.43
2022-11-15T01:16:52.111Z,14.88
2022-11-15T01:19:18.767Z,14.88
2022-11-15T01:21:45.368Z,14.70
2022-11-15T01:24:13.732Z,15.30
2022-11-15T01:26:40.627Z,14.95
2022-11-15T01:29:07.264Z,13.55
2022-11-15T01:31:36.131Z,14.65
2022-11-15T01:36:29.369Z,13.52
2022-11-15T01:38:57.390Z,14.23
2022-11-15T01:41:26.707Z,13.83
2022-11-15T01:43:55.318Z,14.57
2022-11-15T01:46:30.511Z,14.18
2022-11-15T01:49:01.776Z,14.23
2022-11-15T01:51:33.013Z,13.88
2022-11-15T01:54:03.205Z,15.23
2022-11-15T01:56:34.019Z,14.60
2022-11-15T01:59:03.649Z,14.18
2022-11-15T02:01:33.496Z,13.50
2022-11-15T02:04:07.802Z,12.63
2022-11-15T02:06:35.869Z,14.43
2022-11-15T02:09:02.906Z,13.27
2022-11-15T02:11:30.490Z,13.60
2022-11-15T02:13:58.843Z,14.07
2022-11-15T02:16:36.821Z,13.48
2022-11-15T02:19:14.457Z,13.33
2022-11-15T02:21:48.155Z,12.30
2022-11-15T02:24:41.606Z,13.45
2022-11-15T02:27:45.552Z,12.65
2022-11-15T02:30:23.426Z,12.45
2022-11-15T02:32:55.790Z,12.63
2022-11-15T02:35:31.300Z,12.15
2022-11-15T02:38:00.825Z,11.82
2022-11-15T02:40:35.715Z,13.20
2022-11-15T02:43:28.484Z,12.55
2022-11-15T02:46:04.055Z,13.35
2022-11-15T02:48:32.807Z,12.70
2022-11-15T02:51:00.369Z,12.35
2022-11-15T02:53:27.997Z,11.73
2022-11-15T02:55:57.593Z,12.32
2022-11-15T02:58:59.634Z,12.40
2022-11-15T03:01:39.841Z,13.40
2022-11-15T03:04:17.345Z,12.55
2022-11-15T03:06:51.401Z,12.30
2022-11-15T03:09:29.926Z,12.43
2022-11-15T03:12:02.525Z,12.30
2022-11-15T03:14:35.458Z,12.00
2022-11-15T03:17:12.837Z,12.38
2022-11-15T03:19:44.834Z,12.32
2022-11-15T03:22:15.224Z,12.30
2022-11-15T03:24:44.352Z,12.20
2022-11-15T03:27:13.830Z,11.60
2022-11-15T03:29:45.433Z,12.15
2022-11-15T03:32:17.454Z,11.85
2022-11-15T03:34:48.614Z,12.27
2022-11-15T03:37:18.373Z,12.25
2022-11-15T03:39:45.162Z,11.88
2022-11-15T03:42:21.510Z,12.07
2022-11-15T03:44:55.773Z,11.82
2022-11-15T03:47:30.074Z,12.20
2022-11-15T03:50:02.229Z,12.57
2022-11-15T03:52:34.319Z,11.70
2022-11-15T03:55:03.620Z,12.50
2022-11-15T03:57:30.416Z,11.48
2022-11-15T03:59:57.009Z,13.13
2022-11-15T04:02:25.331Z,14.00
2022-11-15T04:04:52.051Z,13.88
2022-11-15T04:07:18.737Z,14.20
2022-11-15T04:10:03.752Z,13.93
2022-11-15T04:12:33.410Z,14.43
2022-11-15T04:15:08.223Z,13.88
2022-11-15T04:17:40.888Z,14.63
2022-11-15T04:20:29.501Z,14.40
2022-11-15T04:23:15.738Z,13.73
2022-11-15T04:25:42.973Z,13.77
2022-11-15T04:28:10.253Z,13.68
2022-11-15T04:30:36.986Z,14.13
2022-11-15T04:33:05.097Z,14.20
2022-11-15T04:35:31.869Z,14.05
2022-11-15T04:37:59.291Z,14.38
2022-11-15T04:40:25.885Z,13.93
2022-11-15T04:42:52.501Z,13.52
2022-11-15T04:45:19.181Z,14.02
2022-11-15T04:47:46.352Z,14.23
2022-11-15T04:50:15.651Z,14.25
2022-11-15T04:52:43.218Z,14.27
2022-11-15T04:55:10.034Z,13.63
2022-11-15T04:57:36.698Z,14.68
2022-11-15T05:00:05.941Z,14.82
2022-11-15T05:02:52.730Z,14.63
2022-11-15T05:05:20.840Z,13.98
2022-11-15T05:07:47.685Z,13.40
2022-11-15T05:10:14.498Z,14.00
2022-11-15T05:12:41.253Z,13.43
2022-11-15T05:15:08.808Z,14.07
2022-11-15T05:17:35.715Z,13.43
2022-11-15T05:20:02.574Z,13.32
2022-11-15T05:22:30.569Z,14.93
2022-11-15T05:24:57.185Z,13.17
2022-11-15T05:27:23.809Z,13.30
2022-11-15T05:29:50.394Z,14.63
2022-11-15T05:32:18.836Z,14.05
2022-11-15T05:34:46.258Z,13.55
2022-11-15T05:37:13.311Z,13.43
2022-11-15T05:39:41.262Z,13.55
2022-11-15T05:42:10.580Z,13.10
2022-11-15T05:44:39.166Z,13.43
2022-11-15T05:47:09.786Z,13.15
2022-11-15T05:49:40.259Z,13.30
2022-11-15T05:52:11.288Z,13.93
2022-11-15T05:54:38.621Z,12.65
2022-11-15T05:57:07.232Z,13.55
2022-11-15T05:59:34.736Z,14.05
2022-11-15T06:02:01.520Z,14.80
2022-11-15T06:04:28.431Z,14.25
2022-11-15T06:06:55.245Z,13.70
2022-11-15T06:09:21.921Z,13.63
2022-11-15T06:11:49.295Z,14.75
2022-11-15T06:14:17.297Z,13.70
2022-11-15T06:16:45.057Z,13.47
2022-11-15T06:19:11.709Z,13.93
2022-11-15T06:21:38.417Z,13.85
2022-11-15T06:24:06.629Z,13.57
2022-11-15T06:26:35.190Z,14.35
2022-11-15T06:29:03.691Z,13.75
2022-11-15T06:31:31.966Z,13.57
2022-11-15T06:33:58.594Z,13.02
2022-11-15T06:36:25.202Z,13.95
2022-11-15T06:38:52.211Z,14.10
2022-11-15T06:41:18.924Z,12.48
2022-11-15T06:43:45.570Z,13.50
2022-11-15T06:46:12.190Z,13.55
2022-11-15T06:48:40.307Z,12.68
2022-11-15T06:51:07.009Z,13.23
2022-11-15T06:53:34.476Z,13.02
2022-11-15T06:56:02.196Z,13.15
2022-11-15T06:58:28.861Z,13.00
2022-11-15T07:00:59.917Z,12.18
2022-11-15T07:03:27.039Z,12.18
2022-11-15T07:05:56.702Z,12.18
2022-11-15T07:08:24.108Z,12.65
2022-11-15T07:10:51.203Z,12.10
2022-11-15T07:13:17.827Z,12.32
2022-11-15T07:15:44.710Z,11.98
2022-11-15T07:18:11.514Z,12.43
2022-11-15T07:20:38.189Z,11.93
2022-11-15T07:23:06.788Z,11.63
2022-11-15T07:25:33.432Z,11.57
2022-11-15T07:28:01.089Z,12.27
2022-11-15T07:30:28.813Z,11.65
2022-11-15T07:32:55.594Z,12.88
2022-11-15T07:35:22.433Z,11.15
2022-11-15T07:37:55.312Z,11.57
2022-11-15T07:40:23.661Z,11.55
2022-11-15T07:42:57.161Z,10.55
2022-11-15T07:45:26.753Z,11.90
2022-11-15T07:47:53.962Z,10.60
2022-11-15T07:50:21.021Z,11.45
2022-11-15T07:52:48.123Z,11.27
2022-11-15T07:55:14.984Z,11.30
2022-11-15T07:57:43.174Z,10.90
2022-11-15T08:00:11.126Z,10.45
2022-11-15T08:02:37.905Z,11.63
2022-11-15T08:05:06.125Z,11.43
2022-11-15T08:07:33.891Z,10.73
2022-11-15T08:10:02.124Z,11.80
2022-11-15T08:12:29.889Z,11.23
2022-11-15T08:14:57.937Z,11.15
2022-11-15T08:17:25.218Z,11.67
2022-11-15T08:19:52.151Z,10.63
2022-11-15T08:22:19.686Z,10.75
2022-11-15T08:24:46.323Z,11.18
2022-11-15T08:27:16.224Z,11.20
2022-11-15T08:29:43.729Z,10.05
2022-11-15T08:32:12.445Z,11.48
2022-11-15T08:34:39.696Z,10.98
2022-11-15T08:37:06.932Z,11.02
2022-11-15T08:39:33.554Z,10.90
2022-11-15T08:42:00.288Z,11.07
2022-11-15T08:44:27.027Z,11.15
2022-11-15T08:46:53.683Z,11.18
2022-11-15T08:49:21.659Z,11.25
2022-11-15T08:51:48.358Z,11.53
2022-11-15T08:54:14.967Z,12.00
2022-11-15T08:56:41.659Z,10.80
2022-11-15T08:59:08.532Z,11.85
2022-11-15T09:01:35.419Z,11.25
2022-11-15T09:04:02.303Z,11.32
2022-11-15T09:06:30.494Z,10.35
2022-11-15T09:08:57.488Z,10.98
2022-11-15T09:11:24.282Z,10.55
2022-11-15T09:13:51.268Z,10.27
2022-11-15T09:16:17.926Z,9.60
2022-11-15T09:18:44.525Z,9.85
2022-11-15T09:21:11.545Z,9.70
2022-11-15T09:23:39.689Z,9.85
2022-11-15T09:26:06.887Z,9.00
2022-11-15T09:28:35.436Z,9.13
2022-11-15T09:31:05.752Z,8.60
2022-11-15T09:33:33.097Z,9.15
2022-11-15T09:36:07.999Z,8.95
2022-11-15T09:38:35.287Z,8.02
2022-11-15T09:41:38.020Z,8.60
2022-11-15T09:44:27.066Z,8.60
2022-11-15T09:47:06.556Z,8.48
2022-11-15T09:49:34.002Z,8.43
2022-11-15T09:52:01.185Z,8.45
2022-11-15T09:54:53.409Z,7.80
2022-11-15T09:57:32.462Z,8.13
2022-11-15T10:03:11.005Z,7.88
2022-11-15T10:05:40.253Z,8.10
2022-11-15T10:08:18.684Z,7.50
2022-11-15T10:10:48.615Z,7.88
2022-11-15T10:13:20.941Z,7.90
2022-11-15T10:15:50.334Z,7.43
2022-11-15T10:18:23.954Z,7.53
2022-11-15T10:20:54.399Z,7.10
2022-11-15T10:23:24.418Z,6.68
2022-11-15T10:25:54.150Z,6.32
2022-11-15T10:28:24.002Z,5.32
2022-11-15T10:30:54.692Z,5.40
2022-11-15T10:33:27.549Z,6.03
2022-11-15T10:36:17.772Z,5.63
2022-11-15T10:38:58.782Z,4.97
2022-11-15T10:41:35.787Z,5.07
2022-11-15T10:44:27.008Z,4.80
2022-11-15T10:47:23.383Z,4.10
2022-11-15T10:49:59.089Z,4.10
2022-11-15T10:52:26.276Z,4.53
2022-11-15T10:54:58.882Z,4.07
2022-11-15T10:57:30.541Z,4.30
2022-11-15T11:00:00.367Z,4.13
2022-11-15T11:02:36.827Z,3.83
2022-11-15T11:05:05.762Z,3.50
2022-11-15T11:07:34.873Z,3.03
2022-11-15T11:10:22.817Z,3.08
2022-11-15T11:12:51.619Z,2.95
2022-11-15T11:15:19.663Z,2.90
2022-11-15T11:18:03.381Z,2.97
2022-11-15T11:20:38.101Z,2.85
2022-11-15T11:23:21.806Z,2.45
2022-11-15T11:25:57.637Z,2.50
2022-11-15T11:28:41.059Z,2.42
2022-11-15T11:31:21.889Z,2.30
2022-11-15T11:34:02.214Z,2.58
2022-11-15T11:36:40.942Z,2.15
2022-11-15T11:42:22.001Z,1.90
2022-11-15T11:45:01.473Z,2.00
2022-11-15T11:47:37.024Z,2.05
2022-11-15T11:50:16.112Z,2.05
2022-11-15T11:52:56.587Z,1.75
2022-11-15T11:55:39.694Z,2.08
2022-11-15T11:58:16.144Z,1.90
2022-11-15T12:01:13.099Z,1.92
2022-11-15T12:03:48.170Z,2.22
2022-11-15T12:06:26.983Z,1.92
2022-11-15T12:11:41.966Z,1.80
2022-11-15T12:14:20.000Z,1.58
2022-11-15T12:16:46.777Z,1.98
2022-11-15T12:19:13.533Z,2.10
2022-11-15T12:21:48.476Z,1.52
2022-11-15T12:24:20.331Z,1.70
2022-11-15T12:26:52.139Z,1.67
2022-11-15T12:29:24.734Z,1.80
2022-11-15T12:31:56.647Z,1.65
2022-11-15T12:34:41.314Z,1.75
2022-11-15T12:37:56.372Z,1.50
2022-11-15T12:40:34.668Z,1.67
2022-11-15T12:43:05.284Z,1.60
2022-11-15T12:45:34.361Z,1.35
2022-11-15T12:48:47.647Z,1.35
2022-11-15T12:51:14.313Z,1.35
2022-11-15T12:53:41.109Z,1.35
2022-11-15T12:56:23.310Z,1.20
2022-11-15T12:58:55.651Z,1.10
2022-11-15T13:01:59.859Z,1.10
2022-11-15T13:04:29.666Z,1.30
2022-11-15T13:06:58.435Z,1.10
2022-11-15T13:15:44.202Z,1.08
2022-11-15T13:18:34.301Z,1.00
2022-11-15T13:21:39.625Z,1.10
2022-11-15T13:24:14.639Z,1.08
2022-11-15T13:26:41.584Z,1.20
2022-11-15T13:29:18.670Z,1.10
2022-11-15T13:31:46.246Z,1.20
2022-11-15T13:34:50.886Z,1.10
2022-11-15T13:37:33.405Z,1.00
2022-11-15T13:40:19.787Z,1.15
2022-11-15T13:42:46.527Z,1.00
2022-11-15T13:45:18.672Z,1.20
2022-11-15T13:47:45.420Z,1.02
2022-11-15T13:50:12.913Z,1.10
2022-11-15T13:52:44.222Z,1.05
2022-11-15T13:55:14.403Z,1.00
2022-11-15T13:57:45.687Z,1.17
2022-11-15T14:00:31.712Z,1.08
2022-11-15T14:03:06.493Z,1.38
2022-11-15T14:05:33.668Z,1.30
2022-11-15T14:08:03.710Z,1.00
2022-11-15T14:10:32.477Z,1.10
2022-11-15T14:15:30.992Z,0.93
2022-11-15T14:17:59.663Z,1.00
2022-11-15T14:20:36.041Z,0.95
2022-11-15T14:23:05.688Z,1.38
2022-11-15T14:25:34.933Z,1.20
2022-11-15T14:28:37.801Z,1.20
2022-11-15T14:31:16.286Z,1.10
2022-11-15T14:33:43.085Z,1.15
2022-11-15T14:36:13.934Z,1.52
2022-11-15T14:38:43.833Z,1.80
2022-11-15T14:41:21.385Z,1.77
2022-11-15T14:43:52.224Z,1.92
2022-11-15T14:46:20.904Z,2.03
2022-11-15T14:48:47.549Z,1.75
2022-11-15T14:51:16.350Z,1.65
2022-11-15T14:56:09.949Z,2.00
2022-11-15T14:58:36.948Z,1.80
2022-11-15T15:01:11.778Z,1.75
2022-11-15T15:03:39.819Z,1.80
2022-11-15T15:06:06.777Z,1.83
2022-11-15T15:08:33.719Z,2.03
2022-11-15T15:11:00.688Z,1.63
2022-11-15T15:13:29.648Z,1.35
2022-11-15T15:15:56.307Z,1.40
2022-11-15T15:18:22.928Z,1.30
2022-11-15T15:20:56.489Z,1.33
2022-11-15T15:23:24.945Z,1.35
2022-11-15T15:25:53.821Z,1.40
2022-11-15T15:30:46.876Z,1.17
2022-11-15T15:33:13.727Z,1.40
2022-11-15T15:35:40.562Z,1.27
2022-11-15T15:38:12.065Z,1.50
2022-11-15T15:40:39.148Z,1.50
2022-11-15T15:43:05.973Z,1.55
2022-11-15T15:45:33.822Z,1.67
2022-11-15T15:48:00.572Z,1.50
2022-11-15T15:50:29.993Z,1.77
2022-11-15T15:52:58.846Z,1.75
2022-11-15T15:57:54.363Z,1.58
2022-11-15T16:00:24.549Z,1.65
2022-11-15T16:02:51.619Z,1.98
2022-11-15T16:05:18.636Z,2.38
2022-11-15T16:07:45.914Z,2.10
2022-11-15T16:10:20.330Z,2.03
2022-11-15T16:12:49.275Z,2.20
2022-11-15T16:15:16.400Z,1.92
2022-11-15T16:17:47.866Z,2.00
2022-11-15T16:20:24.839Z,1.80
2022-11-15T16:22:51.510Z,1.73
2022-11-15T16:25:18.675Z,2.25
2022-11-15T16:27:46.023Z,1.90
2022-11-15T16:30:17.199Z,1.95
2022-11-15T16:32:44.168Z,1.92
2022-11-15T16:35:13.037Z,1.90
2022-11-15T16:40:27.519Z,1.63
2022-11-15T16:42:54.330Z,1.77
2022-11-15T16:45:22.491Z,1.80
2022-11-15T16:47:49.409Z,1.88
2022-11-15T16:50:24.092Z,1.95
2022-11-15T16:52:52.262Z,2.13
2022-11-15T16:55:19.545Z,1.90
2022-11-15T16:57:46.438Z,1.98
2022-11-15T17:00:16.665Z,2.00
2022-11-15T17:02:46.318Z,2.10
2022-11-15T17:05:18.819Z,1.90
2022-11-15T17:07:49.064Z,2.20
2022-11-15T17:10:16.826Z,1.88
2022-11-15T17:12:43.448Z,2.22
2022-11-15T17:15:12.461Z,2.22
2022-11-15T17:17:39.883Z,2.25
2022-11-15T17:20:18.363Z,2.30
2022-11-15T17:22:45.295Z,2.40
2022-11-15T17:25:15.976Z,2.30
2022-11-15T17:27:42.879Z,2.15
2022-11-15T17:30:12.069Z,2.55
2022-11-15T17:32:39.100Z,2.35
2022-11-15T17:35:15.148Z,2.58
2022-11-15T17:37:43.707Z,2.50
2022-11-15T17:40:11.616Z,2.72
2022-11-15T17:42:41.130Z,2.63
2022-11-15T17:45:10.438Z,2.50
2022-11-15T17:47:37.466Z,2.50
2022-11-15T17:50:04.868Z,2.67
2022-11-15T17:52:31.617Z,2.85
2022-11-15T17:55:02.038Z,3.13
2022-11-15T17:57:31.123Z,3.03
2022-11-15T17:59:57.789Z,3.00
2022-11-15T18:02:24.463Z,3.15
2022-11-15T18:04:51.214Z,3.22
2022-11-15T18:07:17.935Z,3.53
2022-11-15T18:09:44.869Z,3.33
2022-11-15T18:12:12.903Z,3.05
2022-11-15T18:14:42.289Z,3.13
2022-11-15T18:17:08.992Z,3.30
2022-11-15T18:19:36.444Z,3.78
2022-11-15T18:22:07.251Z,3.50
2022-11-15T18:24:38.750Z,3.85
2022-11-15T18:27:06.418Z,4.00
2022-11-15T18:29:37.625Z,3.97
2022-11-15T18:32:10.907Z,3.72
2022-11-15T18:34:37.672Z,3.70
2022-11-15T18:37:04.441Z,3.70
2022-11-15T18:39:31.331Z,4.13
2022-11-15T18:41:58.163Z,4.00
2022-11-15T18:44:24.895Z,3.90
2022-11-15T18:46:53.395Z,4.10
2022-11-15T18:49:20.548Z,4.07
2022-11-15T18:51:48.224Z,4.13
2022-11-15T18:54:16.188Z,4.20
2022-11-15T18:56:47.056Z,4.80
2022-11-15T18:59:14.602Z,4.00
2022-11-15T19:01:43.253Z,3.75
2022-11-15T19:04:13.833Z,4.80
2022-11-15T19:06:42.637Z,4.53
2022-11-15T19:11:39.288Z,3.92
2022-11-15T19:14:07.358Z,4.05
2022-11-15T19:16:36.206Z,4.23
2022-11-15T19:21:32.417Z,3.75
2022-11-15T19:23:59.899Z,4.63
2022-11-15T19:26:27.540Z,4.43
2022-11-15T19:28:55.880Z,4.30
2022-11-15T19:31:26.261Z,4.88
2022-11-15T19:33:54.163Z,4.78
2022-11-15T19:36:23.090Z,4.33
2022-11-15T19:41:20.407Z,4.03
2022-11-15T19:43:48.036Z,4.30
2022-11-15T19:46:15.595Z,4.55
2022-11-15T19:48:42.386Z,4.75
2022-11-15T19:51:12.265Z,5.25
2022-11-15T19:53:40.060Z,4.90
2022-11-15T19:56:10.832Z,4.45
2022-11-15T19:58:37.782Z,4.35
2022-11-15T20:01:06.140Z,4.70
2022-11-15T20:03:34.256Z,4.40
2022-11-15T20:06:03.113Z,4.40
2022-11-15T20:08:30.921Z,4.50
2022-11-15T20:10:59.232Z,4.60
2022-11-15T20:13:30.310Z,4.10
2022-11-15T20:15:59.810Z,4.53
2022-11-15T20:18:28.694Z,4.38
2022-11-15T20:23:23.376Z,4.13
2022-11-15T20:25:50.489Z,4.03
2022-11-15T20:28:19.210Z,4.40
2022-11-15T20:30:47.952Z,4.28
2022-11-15T20:35:41.865Z,4.43
2022-11-15T20:38:09.995Z,4.78
2022-11-15T20:40:37.692Z,4.30
2022-11-15T20:43:05.118Z,4.60
2022-11-15T20:45:31.961Z,4.57
2022-11-15T20:48:00.382Z,5.38
2022-11-15T20:50:42.191Z,5.30
2022-11-15T20:53:11.732Z,5.50
2022-11-15T20:55:42.802Z,5.75
2022-11-15T20:58:12.238Z,6.03
2022-11-15T21:00:39.039Z,5.72
2022-11-15T21:03:07.167Z,6.25
2022-11-15T21:05:34.418Z,6.05
2022-11-15T21:08:01.191Z,5.97
2022-11-15T21:10:46.149Z,5.65
2022-11-15T21:13:12.829Z,5.68
2022-11-15T21:15:39.453Z,5.32
2022-11-15T21:18:07.754Z,5.45
2022-11-15T21:20:37.739Z,5.35
2022-11-15T21:23:04.350Z,5.65
2022-11-15T21:25:33.054Z,5.70
2022-11-15T21:27:59.753Z,5.90
2022-11-15T21:30:26.527Z,5.75
2022-11-15T21:32:53.539Z,5.68
2022-11-15T21:35:22.379Z,5.53
2022-11-15T21:40:22.909Z,5.90
2022-11-15T21:42:49.910Z,5.82
2022-11-15T21:45:16.678Z,6.05
2022-11-15T21:47:46.443Z,6.32
2022-11-15T21:50:13.573Z,6.18
2022-11-15T21:52:41.708Z,6.85
2022-11-15T21:55:09.142Z,6.50
2022-11-15T21:57:35.846Z,6.82
2022-11-15T22:00:21.080Z,6.30
2022-11-15T22:02:47.669Z,6.88
2022-11-15T22:05:14.357Z,6.53
2022-11-15T22:07:42.484Z,6.50
2022-11-15T22:10:09.469Z,7.25
2022-11-15T22:12:36.780Z,6.93
2022-11-15T22:15:03.805Z,7.32
2022-11-15T22:17:50.517Z,6.80
2022-11-15T22:20:42.874Z,6.57
2022-11-15T22:23:05.932Z,7.13
2022-11-15T22:25:33.156Z,7.35
2022-11-15T22:27:59.754Z,7.47
2022-11-15T22:30:26.396Z,7.60
2022-11-15T22:32:52.988Z,8.10
2022-11-15T22:35:19.864Z,8.82
2022-11-15T22:37:46.459Z,7.22
2022-11-15T22:40:15.682Z,8.10
2022-11-15T22:42:43.049Z,7.40
2022-11-15T22:45:10.017Z,8.07
2022-11-15T22:47:36.801Z,8.05
2022-11-15T22:50:05.409Z,8.13
2022-11-15T22:52:32.055Z,8.18
2022-11-15T22:54:58.676Z,8.02
2022-11-15T22:57:26.671Z,8.30
2022-11-15T22:59:53.265Z,8.60
2022-11-15T23:02:19.895Z,8.82
2022-11-15T23:04:46.558Z,8.43
2022-11-15T23:07:13.442Z,9.35
2022-11-15T23:09:40.211Z,8.65
2022-11-15T23:12:27.309Z,9.13
2022-11-15T23:14:55.229Z,8.68
2022-11-15T23:17:21.922Z,8.53
2022-11-15T23:19:48.491Z,9.20
2022-11-15T23:22:33.462Z,9.23
2022-11-15T23:25:00.150Z,9.75
2022-11-15T23:27:28.054Z,8.93
2022-11-15T23:30:14.714Z,9.43
2022-11-15T23:33:00.047Z,8.40
2022-11-15T23:35:27.919Z,8.85
2022-11-15T23:37:54.564Z,9.37
2022-11-15T23:40:21.515Z,9.50
2022-11-15T23:42:48.435Z,8.95
2022-11-15T23:45:17.024Z,9.93
2022-11-15T23:47:43.684Z,9.45
2022-11-15T23:50:10.570Z,9.13
2022-11-15T23:52:37.242Z,9.35
2022-11-15T23:55:04.859Z,9.60
2022-11-15T23:57:31.549Z,9.82
